Greenville, Virginia
Current Conditions -  °F | °C
As of 6:55 PM on Monday 20 Oct 2014 (Local Time) from KW13 Reporting Station
Scattered Clouds Scattered Clouds  
Wind Chill: 59°   Ceiling: Unl
Heat Index: 59°   Visibility: 10mi
Dew Point: 46°   Wind: 5mph
Humidity: 62%   Direction: 180°S
Pressure: 29.94"   Gusts: NA
Location:  38°N, 79.16°W
Report Text: KW13 202255Z AUTO 18004KT 10SM SCT070 SCT090 SCT110 15/08 A2994 RMK AO1 T01520080
Loading
Personal Weather Stations






























Interactive Weather Map New forecast layout! Learn more

10-Day Weather Forecast

Advertisements
Track Severe Weather on mobile